Norwich, Connecticut
Current Conditions -  °F | °C
As of 2:56 AM on Friday 19 Dec 2014 (Local Time) from KGON Reporting Station
Overcast Overcast  
Wind Chill: -3°   Ceiling: 5500
Heat Index:   Visibility: 8mi
Dew Point: -3°   Wind: 10mph
Humidity: 72%   Direction: 310°NW
Pressure: 29.92"   Gusts: NA
Location:  41.53°N, 72.08°W
Report Text: KGON 190756Z AUTO 31009KT 8SM OVC055 02/M03 A2992 RMK AO2 SLP130 T00171028
Loading
Personal Weather Stations






























Interactive Weather Map New forecast layout! Learn more

10-Day Weather Forecast

Advertisements
Track Severe Weather on mobile